createdAt,value
2017-12-30T00:01:08.005Z,9.27
2017-12-30T00:03:35.431Z,7.37
2017-12-30T00:06:02.880Z,5.93
2017-12-30T00:08:30.306Z,7.30
2017-12-30T00:10:57.727Z,3.63
2017-12-30T00:13:25.159Z,3.40
2017-12-30T00:15:53.348Z,2.23
2017-12-30T00:18:21.551Z,3.90
2017-12-30T00:20:48.977Z,3.07
2017-12-30T00:23:17.175Z,1.77
2017-12-30T00:25:44.595Z,2.13
2017-12-30T00:28:12.024Z,2.37
2017-12-30T00:30:39.458Z,3.33
2017-12-30T00:33:06.885Z,2.70
2017-12-30T00:35:34.307Z,8.83
2017-12-30T00:38:01.740Z,3.13
2017-12-30T00:40:29.154Z,3.53
2017-12-30T00:42:56.582Z,4.83
2017-12-30T00:45:24.006Z,4.57
2017-12-30T00:47:51.427Z,3.53
2017-12-30T00:50:18.855Z,2.50
2017-12-30T00:52:46.271Z,4.23
2017-12-30T00:55:13.700Z,9.13
2017-12-30T00:57:41.123Z,6.23
2017-12-30T01:00:08.557Z,2.50
2017-12-30T01:02:35.981Z,6.10
2017-12-30T01:05:03.404Z,3.53
2017-12-30T01:07:31.596Z,2.17
2017-12-30T01:09:59.784Z,2.43
2017-12-30T01:12:27.206Z,2.00
2017-12-30T01:14:55.395Z,1.80
2017-12-30T01:17:23.591Z,7.07
2017-12-30T01:19:51.022Z,2.87
2017-12-30T01:22:19.215Z,2.50
2017-12-30T01:24:46.634Z,2.70
2017-12-30T01:27:14.071Z,2.50
2017-12-30T01:29:41.505Z,3.80
2017-12-30T01:32:08.927Z,2.97
2017-12-30T01:34:37.117Z,3.73
2017-12-30T01:37:04.539Z,3.83
2017-12-30T01:39:31.962Z,3.70
2017-12-30T01:41:59.396Z,3.10
2017-12-30T01:44:26.823Z,13.43
2017-12-30T01:46:55.025Z,3.33
2017-12-30T01:49:22.443Z,5.70
2017-12-30T01:51:49.871Z,3.30
2017-12-30T01:54:17.307Z,3.70
2017-12-30T01:56:44.730Z,10.93
2017-12-30T01:59:12.923Z,11.40
2017-12-30T02:01:40.356Z,4.80
2017-12-30T02:04:08.557Z,9.67
2017-12-30T02:06:35.994Z,3.37
2017-12-30T02:09:04.187Z,3.70
2017-12-30T02:11:31.619Z,10.17
2017-12-30T02:13:59.815Z,6.30
2017-12-30T02:16:27.244Z,8.17
2017-12-30T02:18:55.448Z,6.93
2017-12-30T02:21:22.871Z,7.30
2017-12-30T02:23:50.298Z,6.53
2017-12-30T02:26:17.731Z,5.77
2017-12-30T02:28:45.152Z,6.50
2017-12-30T02:31:13.356Z,9.57
2017-12-30T02:33:40.789Z,10.37
2017-12-30T02:36:08.987Z,19.97
2017-12-30T02:38:36.426Z,4.60
2017-12-30T02:41:04.635Z,11.83
2017-12-30T02:43:32.083Z,10.73
2017-12-30T02:45:59.528Z,11.13
2017-12-30T02:48:26.947Z,7.73
2017-12-30T02:50:54.380Z,13.00
2017-12-30T02:53:21.815Z,7.57
2017-12-30T02:55:49.264Z,12.33
2017-12-30T02:58:16.693Z,20.00
2017-12-30T03:00:44.958Z,13.93
2017-12-30T03:03:12.375Z,10.87
2017-12-30T03:05:39.807Z,10.80
2017-12-30T03:08:07.231Z,9.97
2017-12-30T03:10:35.436Z,8.60
2017-12-30T03:13:02.852Z,7.10
2017-12-30T03:15:30.287Z,13.23
2017-12-30T03:17:57.726Z,18.73
2017-12-30T03:20:25.158Z,25.13
2017-12-30T03:22:52.580Z,12.83
2017-12-30T03:25:20.003Z,12.97
2017-12-30T03:27:47.430Z,12.30
2017-12-30T03:30:14.858Z,14.00
2017-12-30T03:32:43.059Z,14.13
2017-12-30T03:35:10.480Z,8.00
2017-12-30T03:37:37.922Z,15.47
2017-12-30T03:40:05.351Z,15.40
2017-12-30T03:42:32.783Z,10.70
2017-12-30T03:45:00.210Z,22.67
2017-12-30T03:47:27.638Z,10.63
2017-12-30T03:49:55.839Z,9.97
2017-12-30T03:52:23.275Z,8.63
2017-12-30T03:54:50.707Z,11.63
2017-12-30T03:57:18.132Z,8.40
2017-12-30T03:59:46.316Z,11.03
2017-12-30T04:02:13.747Z,9.07
2017-12-30T04:04:41.171Z,23.03
2017-12-30T04:07:08.595Z,13.70
2017-12-30T04:09:36.023Z,5.87
2017-12-30T04:12:04.206Z,6.60
2017-12-30T04:14:31.643Z,11.37
2017-12-30T04:16:59.066Z,10.10
2017-12-30T04:19:26.494Z,8.23
2017-12-30T04:21:53.921Z,11.83
2017-12-30T04:24:22.116Z,10.53
2017-12-30T04:26:49.538Z,20.07
2017-12-30T04:29:16.967Z,16.20
2017-12-30T04:31:44.394Z,9.50
2017-12-30T04:34:11.819Z,14.17
2017-12-30T04:36:40.043Z,16.53
2017-12-30T04:39:07.438Z,8.23
2017-12-30T04:41:34.858Z,12.80
2017-12-30T04:44:02.293Z,13.17
2017-12-30T04:46:29.714Z,9.87
2017-12-30T04:48:57.139Z,7.13
2017-12-30T04:51:24.562Z,6.10
2017-12-30T04:53:51.995Z,10.17
2017-12-30T04:56:19.415Z,24.93
2017-12-30T04:58:46.850Z,14.33
2017-12-30T05:01:14.278Z,12.60
2017-12-30T05:03:42.467Z,9.30
2017-12-30T05:06:09.892Z,8.67
2017-12-30T05:08:37.316Z,11.93
2017-12-30T05:11:04.774Z,16.67
2017-12-30T05:13:32.215Z,11.23
2017-12-30T05:15:59.650Z,6.13
2017-12-30T05:18:27.070Z,9.93
2017-12-30T05:20:54.507Z,12.47
2017-12-30T05:23:21.942Z,8.83
2017-12-30T05:25:49.367Z,20.80
2017-12-30T05:28:16.796Z,8.97
2017-12-30T05:30:44.219Z,12.33
2017-12-30T05:33:11.647Z,8.07
2017-12-30T05:35:39.083Z,12.00
2017-12-30T05:38:07.270Z,8.87
2017-12-30T05:40:34.687Z,13.30
2017-12-30T05:43:02.122Z,13.10
2017-12-30T05:45:29.559Z,15.17
2017-12-30T05:47:56.982Z,14.13
2017-12-30T05:50:25.178Z,19.10
2017-12-30T05:52:52.611Z,11.13
2017-12-30T05:55:20.803Z,8.20
2017-12-30T05:57:48.226Z,15.63
2017-12-30T06:00:15.642Z,21.03
2017-12-30T06:02:43.086Z,10.60
2017-12-30T06:05:10.504Z,20.13
2017-12-30T06:07:37.935Z,13.60
2017-12-30T06:10:05.363Z,16.53
2017-12-30T06:12:32.804Z,12.77
2017-12-30T06:15:00.230Z,13.73
2017-12-30T06:17:27.651Z,13.23
2017-12-30T06:19:55.083Z,11.53
2017-12-30T06:22:22.507Z,17.03
2017-12-30T06:24:50.707Z,10.93
2017-12-30T06:27:18.127Z,17.43
2017-12-30T06:29:45.560Z,10.13
2017-12-30T06:32:12.999Z,10.33
2017-12-30T06:34:40.455Z,16.83
2017-12-30T06:37:07.882Z,17.27
2017-12-30T06:39:35.323Z,16.00
2017-12-30T06:42:02.772Z,14.40
2017-12-30T06:44:30.192Z,9.53
2017-12-30T06:46:57.619Z,17.10
2017-12-30T06:49:25.051Z,14.73
2017-12-30T06:51:53.235Z,16.20
2017-12-30T06:54:21.423Z,19.30
2017-12-30T06:56:48.850Z,26.07
2017-12-30T06:59:17.048Z,24.97
2017-12-30T07:01:45.239Z,14.17
2017-12-30T07:04:12.669Z,14.27
2017-12-30T07:06:40.858Z,14.37
2017-12-30T07:09:10.292Z,9.77
2017-12-30T07:11:37.699Z,12.13
2017-12-30T07:14:05.888Z,26.60
2017-12-30T07:16:34.090Z,10.73
2017-12-30T07:19:01.504Z,20.57
2017-12-30T07:21:29.710Z,11.20
2017-12-30T07:23:57.142Z,14.00
2017-12-30T07:26:24.556Z,9.13
2017-12-30T07:28:51.996Z,10.67
2017-12-30T07:31:20.423Z,12.60
2017-12-30T07:33:47.909Z,15.40
2017-12-30T07:36:16.083Z,14.10
2017-12-30T07:38:44.527Z,16.37
2017-12-30T07:41:12.012Z,18.73
2017-12-30T07:43:39.423Z,27.40
2017-12-30T07:46:07.847Z,12.73
2017-12-30T07:48:35.284Z,16.93
2017-12-30T07:51:02.740Z,17.20
2017-12-30T07:53:30.164Z,17.53
2017-12-30T07:55:57.809Z,11.73
2017-12-30T07:58:25.407Z,17.27
2017-12-30T08:00:52.842Z,12.47
2017-12-30T08:03:20.266Z,13.20
2017-12-30T08:05:47.695Z,7.23
2017-12-30T08:08:15.890Z,9.10
2017-12-30T08:10:44.099Z,7.37
2017-12-30T08:13:11.528Z,5.43
2017-12-30T08:15:38.952Z,9.20
2017-12-30T08:18:06.383Z,7.30
2017-12-30T08:20:33.807Z,7.60
2017-12-30T08:23:01.235Z,17.30
2017-12-30T08:25:29.431Z,24.67
2017-12-30T08:27:56.846Z,8.47
2017-12-30T08:30:24.279Z,15.70
2017-12-30T08:32:51.703Z,8.23
2017-12-30T08:35:19.138Z,13.37
2017-12-30T08:37:47.331Z,9.17
2017-12-30T08:40:14.751Z,14.83
2017-12-30T08:42:42.183Z,11.40
2017-12-30T08:45:09.619Z,12.00
2017-12-30T08:47:37.041Z,15.37
2017-12-30T08:50:05.227Z,8.17
2017-12-30T08:52:32.659Z,8.63
2017-12-30T08:55:00.859Z,11.40
2017-12-30T08:57:28.283Z,11.20
2017-12-30T08:59:55.703Z,13.80
2017-12-30T09:02:23.130Z,8.90
2017-12-30T09:04:50.555Z,11.10
2017-12-30T09:07:17.992Z,16.27
2017-12-30T09:09:45.423Z,11.53
2017-12-30T09:12:12.846Z,7.90
2017-12-30T09:14:41.034Z,9.53
2017-12-30T09:17:08.475Z,4.40
2017-12-30T09:19:35.879Z,14.33
2017-12-30T09:22:03.310Z,6.57
2017-12-30T09:24:30.730Z,11.77
2017-12-30T09:26:58.934Z,6.07
2017-12-30T09:29:27.647Z,7.40
2017-12-30T09:31:55.039Z,9.23
2017-12-30T09:34:22.596Z,7.90
2017-12-30T09:36:50.024Z,11.03
2017-12-30T09:39:17.447Z,8.50
2017-12-30T09:41:49.607Z,8.30
2017-12-30T09:44:24.177Z,11.27
2017-12-30T09:46:51.619Z,7.57
2017-12-30T09:49:19.056Z,7.00
2017-12-30T09:51:46.481Z,6.10
2017-12-30T09:54:13.905Z,6.50
2017-12-30T09:56:41.398Z,4.83
2017-12-30T09:59:08.831Z,9.47
2017-12-30T10:01:36.256Z,5.67
2017-12-30T10:04:03.666Z,4.67
2017-12-30T10:06:35.111Z,3.20
2017-12-30T10:09:02.532Z,3.57
2017-12-30T10:11:36.487Z,3.90
2017-12-30T10:14:05.121Z,4.07
2017-12-30T10:16:33.548Z,4.07
2017-12-30T10:19:00.973Z,3.20
2017-12-30T10:21:28.440Z,6.10
2017-12-30T10:23:55.869Z,3.77
2017-12-30T10:26:23.827Z,1.63
2017-12-30T10:28:52.267Z,4.70
2017-12-30T10:31:19.730Z,2.40
2017-12-30T10:33:47.171Z,7.17
2017-12-30T10:36:14.602Z,1.60
2017-12-30T10:38:42.022Z,2.23
2017-12-30T10:41:09.455Z,1.33
2017-12-30T10:43:37.835Z,1.20
2017-12-30T10:46:05.309Z,2.30
2017-12-30T10:48:32.712Z,1.43
2017-12-30T10:51:00.135Z,4.20
2017-12-30T10:53:27.562Z,2.00
2017-12-30T10:55:55.024Z,2.10
2017-12-30T10:58:22.438Z,1.20
2017-12-30T11:00:55.601Z,1.43
2017-12-30T11:03:23.030Z,1.17
2017-12-30T11:05:51.231Z,2.67
2017-12-30T11:08:18.655Z,1.40
2017-12-30T11:10:46.096Z,1.40
2017-12-30T11:13:13.525Z,2.20
2017-12-30T11:15:40.945Z,2.13
2017-12-30T11:18:09.127Z,3.73
2017-12-30T11:20:36.554Z,2.10
2017-12-30T11:23:04.008Z,2.83
2017-12-30T11:25:31.431Z,1.60
2017-12-30T11:27:59.039Z,1.37
2017-12-30T11:30:26.479Z,1.53
2017-12-30T11:32:53.900Z,1.53
2017-12-30T11:35:21.326Z,3.17
2017-12-30T11:37:48.752Z,1.23
2017-12-30T11:40:16.179Z,1.27
2017-12-30T11:42:43.595Z,1.87
2017-12-30T11:45:11.021Z,1.70
2017-12-30T11:47:38.439Z,2.10
2017-12-30T11:50:05.868Z,4.60
2017-12-30T11:52:34.047Z,2.17
2017-12-30T11:55:01.488Z,1.30
2017-12-30T11:57:29.846Z,1.33
2017-12-30T11:59:59.451Z,2.00
2017-12-30T12:02:27.666Z,1.50
2017-12-30T12:04:58.467Z,3.20
2017-12-30T12:07:26.795Z,1.90
2017-12-30T12:09:55.282Z,4.17
2017-12-30T12:12:23.776Z,1.80
2017-12-30T12:14:53.918Z,1.87
2017-12-30T12:17:21.467Z,1.83
2017-12-30T12:19:50.987Z,3.23
2017-12-30T12:22:18.411Z,3.40
2017-12-30T12:24:46.138Z,2.23
2017-12-30T12:27:14.342Z,6.53
2017-12-30T12:29:42.027Z,2.47
2017-12-30T12:32:09.466Z,5.60
2017-12-30T12:34:37.069Z,3.40
2017-12-30T12:37:04.577Z,4.83
2017-12-30T12:39:31.988Z,2.63
2017-12-30T12:42:00.176Z,4.47
2017-12-30T12:44:28.388Z,5.33
2017-12-30T12:46:55.807Z,4.50
2017-12-30T12:49:23.995Z,3.90
2017-12-30T12:51:51.419Z,5.87
2017-12-30T12:54:18.839Z,4.33
2017-12-30T12:56:46.265Z,3.90
2017-12-30T12:59:13.692Z,4.27
2017-12-30T13:01:41.114Z,3.33
2017-12-30T13:04:08.534Z,4.27
2017-12-30T13:06:35.966Z,4.13
2017-12-30T13:09:04.172Z,5.07
2017-12-30T13:11:31.593Z,4.37
2017-12-30T13:13:59.216Z,5.33
2017-12-30T13:16:26.676Z,3.50
2017-12-30T13:18:54.127Z,7.60
2017-12-30T13:21:21.530Z,7.33
2017-12-30T13:23:49.743Z,5.60
2017-12-30T13:26:17.154Z,4.27
2017-12-30T13:28:44.583Z,7.13
2017-12-30T13:31:12.007Z,5.53
2017-12-30T13:33:39.811Z,4.73
2017-12-30T13:36:07.244Z,5.80
2017-12-30T13:38:34.675Z,6.77
2017-12-30T13:41:02.111Z,4.80
2017-12-30T13:43:30.308Z,6.50
2017-12-30T13:45:57.736Z,8.77
2017-12-30T13:48:26.122Z,5.27
2017-12-30T13:50:53.535Z,4.80
2017-12-30T13:53:20.955Z,5.87
2017-12-30T13:55:48.382Z,5.73
2017-12-30T13:58:15.812Z,10.37
2017-12-30T14:00:43.247Z,5.83
2017-12-30T14:03:10.667Z,13.70
2017-12-30T14:05:38.995Z,5.93
2017-12-30T14:08:06.521Z,9.37
2017-12-30T14:10:34.011Z,4.37
2017-12-30T14:13:01.459Z,10.57
2017-12-30T14:15:28.879Z,6.30
2017-12-30T14:17:57.096Z,12.30
2017-12-30T14:20:24.520Z,9.60
2017-12-30T14:22:58.362Z,5.83
2017-12-30T14:25:25.891Z,9.67
2017-12-30T14:27:53.517Z,13.87
2017-12-30T14:30:20.931Z,8.13
2017-12-30T14:32:48.364Z,9.70
2017-12-30T14:35:15.926Z,12.47
2017-12-30T14:37:44.113Z,17.87
2017-12-30T14:40:11.543Z,24.07
2017-12-30T14:42:39.752Z,16.63
2017-12-30T14:45:07.174Z,17.17
2017-12-30T14:47:35.362Z,17.50
2017-12-30T14:50:02.791Z,15.80
2017-12-30T14:52:30.995Z,11.53
2017-12-30T14:54:58.414Z,17.90
2017-12-30T14:57:25.922Z,11.10
2017-12-30T14:59:53.344Z,11.53
2017-12-30T15:02:21.539Z,11.90
2017-12-30T15:04:49.993Z,21.97
2017-12-30T15:07:17.427Z,20.33
2017-12-30T15:09:47.484Z,13.00
2017-12-30T15:12:15.757Z,17.47
2017-12-30T15:14:43.947Z,12.80
2017-12-30T15:17:11.383Z,22.87
2017-12-30T15:19:39.579Z,19.37
2017-12-30T15:22:07.006Z,9.53
2017-12-30T15:24:42.934Z,15.13
2017-12-30T15:27:10.371Z,13.30
2017-12-30T15:29:37.807Z,15.63
2017-12-30T15:32:05.246Z,12.43
2017-12-30T15:34:33.449Z,15.10
2017-12-30T15:37:00.879Z,13.20
2017-12-30T15:39:29.073Z,12.20
2017-12-30T15:41:58.555Z,20.87
2017-12-30T15:44:26.747Z,9.30
2017-12-30T15:46:54.204Z,17.87
2017-12-30T15:49:21.634Z,13.83
2017-12-30T15:51:49.064Z,19.60
2017-12-30T15:54:16.501Z,12.27
2017-12-30T15:56:43.963Z,18.27
2017-12-30T15:59:11.391Z,16.60
2017-12-30T16:01:38.926Z,21.13
2017-12-30T16:04:07.123Z,20.53
2017-12-30T16:06:34.555Z,13.30
2017-12-30T16:09:02.756Z,23.97
2017-12-30T16:11:30.203Z,18.70
2017-12-30T16:13:59.486Z,17.67
2017-12-30T16:16:27.688Z,15.33
2017-12-30T16:18:55.110Z,14.07
2017-12-30T16:21:22.535Z,10.30
2017-12-30T16:23:50.023Z,20.90
2017-12-30T16:26:17.459Z,15.90
2017-12-30T16:28:44.891Z,20.80
2017-12-30T16:31:12.422Z,12.60
2017-12-30T16:33:40.695Z,11.30
2017-12-30T16:36:08.947Z,22.70
2017-12-30T16:38:38.686Z,18.30
2017-12-30T16:41:07.159Z,15.10
2017-12-30T16:43:35.414Z,12.97
2017-12-30T16:46:02.852Z,15.40
2017-12-30T16:48:30.288Z,19.17
2017-12-30T16:50:57.723Z,15.90
2017-12-30T16:53:25.150Z,13.73
2017-12-30T16:55:53.342Z,13.63
2017-12-30T16:58:21.636Z,16.93
2017-12-30T17:00:49.086Z,11.50
2017-12-30T17:03:20.209Z,16.60
2017-12-30T17:05:48.403Z,13.70
2017-12-30T17:08:15.921Z,13.73
2017-12-30T17:10:43.366Z,14.07
2017-12-30T17:13:10.791Z,14.03
2017-12-30T17:15:38.223Z,16.27
2017-12-30T17:18:06.488Z,17.43
2017-12-30T17:20:34.759Z,15.23
2017-12-30T17:23:02.205Z,22.97
2017-12-30T17:25:29.629Z,11.47
2017-12-30T17:27:57.135Z,14.23
2017-12-30T17:30:28.734Z,13.20
2017-12-30T17:32:56.175Z,29.93
2017-12-30T17:35:23.598Z,11.03
2017-12-30T17:37:51.031Z,12.20
2017-12-30T17:40:18.479Z,18.43
2017-12-30T17:42:45.927Z,15.13
2017-12-30T17:45:13.358Z,20.03
2017-12-30T17:47:40.791Z,11.33
2017-12-30T17:50:08.987Z,13.10
2017-12-30T17:52:36.522Z,12.47
2017-12-30T17:55:04.711Z,19.13
2017-12-30T17:57:32.147Z,12.57
2017-12-30T17:59:59.579Z,11.33
2017-12-30T18:02:27.004Z,9.10
2017-12-30T18:04:54.447Z,20.83
2017-12-30T18:07:21.866Z,22.47
2017-12-30T18:09:49.304Z,13.30
2017-12-30T18:12:16.743Z,12.47
2017-12-30T18:14:44.170Z,11.97
2017-12-30T18:17:11.594Z,18.53
2017-12-30T18:19:39.028Z,18.17
2017-12-30T18:22:06.463Z,20.50
2017-12-30T18:24:33.898Z,17.00
2017-12-30T18:27:01.326Z,16.80
2017-12-30T18:29:28.766Z,18.07
2017-12-30T18:31:56.194Z,13.17
2017-12-30T18:34:23.632Z,18.47
2017-12-30T18:36:51.153Z,12.93
2017-12-30T18:39:18.588Z,16.30
2017-12-30T18:41:46.018Z,13.63
2017-12-30T18:44:13.442Z,9.93
2017-12-30T18:46:41.647Z,21.40
2017-12-30T18:49:09.071Z,13.80
2017-12-30T18:51:37.268Z,15.97
2017-12-30T18:54:04.690Z,31.50
2017-12-30T18:56:32.896Z,22.20
2017-12-30T18:59:00.317Z,18.27
2017-12-30T19:01:27.754Z,14.60
2017-12-30T19:03:55.182Z,17.60
2017-12-30T19:06:22.612Z,10.77
2017-12-30T19:08:50.802Z,17.17
2017-12-30T19:11:18.240Z,18.03
2017-12-30T19:13:46.430Z,10.30
2017-12-30T19:16:13.858Z,13.80
2017-12-30T19:18:42.058Z,12.23
2017-12-30T19:21:09.490Z,12.80
2017-12-30T19:23:37.698Z,14.70
2017-12-30T19:26:05.120Z,13.40
2017-12-30T19:28:32.547Z,16.80
2017-12-30T19:30:59.977Z,12.77
2017-12-30T19:33:27.450Z,15.47
2017-12-30T19:35:54.850Z,9.73
2017-12-30T19:38:23.048Z,20.27
2017-12-30T19:40:50.475Z,21.43
2017-12-30T19:43:17.927Z,16.80
2017-12-30T19:45:46.155Z,15.23
2017-12-30T19:48:13.591Z,12.53
2017-12-30T19:50:41.027Z,10.47
2017-12-30T19:53:09.226Z,8.40
2017-12-30T19:55:36.658Z,16.03
2017-12-30T19:58:04.859Z,17.23
2017-12-30T20:00:32.292Z,15.33
2017-12-30T20:03:00.494Z,12.10
2017-12-30T20:05:27.924Z,12.23
2017-12-30T20:07:56.119Z,9.40
2017-12-30T20:10:23.541Z,9.37
2017-12-30T20:12:50.975Z,16.30
2017-12-30T20:15:18.433Z,10.07
2017-12-30T20:17:45.855Z,11.40
2017-12-30T20:20:13.287Z,7.90
2017-12-30T20:22:41.474Z,21.83
2017-12-30T20:25:08.915Z,17.43
2017-12-30T20:27:37.112Z,12.83
2017-12-30T20:30:04.559Z,12.33
2017-12-30T20:32:32.747Z,8.80
2017-12-30T20:35:00.172Z,9.73
2017-12-30T20:37:28.373Z,11.30
2017-12-30T20:39:56.562Z,17.83
2017-12-30T20:42:23.982Z,10.60
2017-12-30T20:44:52.180Z,8.83
2017-12-30T20:47:19.599Z,6.97
2017-12-30T20:49:47.036Z,10.23
2017-12-30T20:52:14.468Z,12.50
2017-12-30T20:54:41.907Z,11.23
2017-12-30T20:57:09.331Z,16.07
2017-12-30T20:59:36.764Z,14.33
2017-12-30T21:02:04.195Z,12.90
2017-12-30T21:04:31.633Z,13.20
2017-12-30T21:06:59.064Z,8.63
2017-12-30T21:09:27.247Z,9.43
2017-12-30T21:11:55.447Z,5.93
2017-12-30T21:14:22.871Z,11.30
2017-12-30T21:16:50.303Z,13.53
2017-12-30T21:19:17.731Z,5.97
2017-12-30T21:21:45.169Z,11.47
2017-12-30T21:24:12.597Z,14.60
2017-12-30T21:26:40.023Z,12.70
2017-12-30T21:29:07.454Z,11.43
2017-12-30T21:31:34.892Z,9.10
2017-12-30T21:34:02.318Z,11.47
2017-12-30T21:36:29.758Z,7.10
2017-12-30T21:38:57.342Z,10.83
2017-12-30T21:41:25.539Z,11.93
2017-12-30T21:43:52.971Z,5.37
2017-12-30T21:46:20.397Z,6.13
2017-12-30T21:48:48.598Z,13.13
2017-12-30T21:51:16.051Z,11.00
2017-12-30T21:53:43.484Z,9.00
2017-12-30T21:56:10.919Z,4.97
2017-12-30T21:58:38.347Z,7.47
2017-12-30T22:01:05.779Z,8.47
2017-12-30T22:03:33.239Z,10.10
2017-12-30T22:06:00.667Z,7.63
2017-12-30T22:08:28.103Z,6.83
2017-12-30T22:10:55.531Z,6.70
2017-12-30T22:13:23.792Z,7.50
2017-12-30T22:15:51.986Z,2.87
2017-12-30T22:18:19.428Z,6.17
2017-12-30T22:20:47.691Z,5.30
2017-12-30T22:23:15.127Z,7.77
2017-12-30T22:25:42.564Z,5.83
2017-12-30T22:28:09.990Z,9.10
2017-12-30T22:30:37.423Z,7.40
2017-12-30T22:33:05.909Z,6.50
2017-12-30T22:35:33.330Z,5.33
2017-12-30T22:38:00.771Z,4.53
2017-12-30T22:40:28.200Z,6.80
2017-12-30T22:42:55.627Z,5.53
2017-12-30T22:45:23.064Z,4.87
2017-12-30T22:47:50.547Z,2.47
2017-12-30T22:50:18.747Z,3.40
2017-12-30T22:52:46.172Z,5.30
2017-12-30T22:55:13.595Z,4.87
2017-12-30T22:57:41.792Z,3.27
2017-12-30T23:00:09.231Z,2.23
2017-12-30T23:02:36.637Z,8.23
2017-12-30T23:05:04.840Z,5.40
2017-12-30T23:07:32.259Z,2.87
2017-12-30T23:10:00.465Z,6.60
2017-12-30T23:12:27.895Z,4.83
2017-12-30T23:14:56.090Z,5.93
2017-12-30T23:17:23.519Z,6.53
2017-12-30T23:19:50.971Z,5.80
2017-12-30T23:22:18.376Z,6.63
2017-12-30T23:24:45.795Z,3.73
2017-12-30T23:27:13.987Z,5.90
2017-12-30T23:29:41.410Z,1.90
2017-12-30T23:32:08.847Z,12.63
2017-12-30T23:34:36.267Z,2.40
2017-12-30T23:37:03.720Z,5.30
2017-12-30T23:39:31.138Z,4.73
2017-12-30T23:41:58.572Z,1.73
2017-12-30T23:44:26.016Z,1.30
2017-12-30T23:46:53.442Z,5.67
2017-12-30T23:49:20.886Z,2.93
2017-12-30T23:51:49.079Z,8.40
2017-12-30T23:54:16.511Z,3.33
2017-12-30T23:56:44.703Z,7.90
2017-12-30T23:59:12.140Z,8.60
